Time;durP1;ratioP1;P1;durP2;ratioP2;P2;SDS_P1;SDS_P2;PMS_P1;PMS_P2;Temp;Humidity;BMP_temperature;BMP_pressure;BME280_temperature;BME280_humidity;BME280_pressure;Samples;Min_cycle;Max_cycle;Signal;HPM_P1;HPM_P2
2023/09/15 00:01:00;;;;;;;4.97;1.88;;;12.20;99.90;;;;;;6092882;23;20020;-67
2023/09/15 00:03:25;;;;;;;5.82;3.05;;;12.20;99.90;;;;;;6119630;23;20093;-67
2023/09/15 00:05:51;;;;;;;6.90;2.45;;;12.10;99.90;;;;;;6093566;23;20080;-67
2023/09/15 00:08:16;;;;;;;7.80;3.15;;;12.20;99.90;;;;;;6091707;23;20348;-67
2023/09/15 00:10:44;;;;;;;5.57;2.00;;;12.00;99.90;;;;;;6118598;23;20021;-67
2023/09/15 00:13:09;;;;;;;5.45;2.25;;;12.10;99.90;;;;;;6094073;23;20022;-67
2023/09/15 00:15:35;;;;;;;2.78;1.85;;;12.10;99.90;;;;;;6092286;23;20022;-67
2023/09/15 00:18:01;;;;;;;6.20;2.13;;;12.10;99.90;;;;;;6118903;23;20017;-67
2023/09/15 00:20:27;;;;;;;8.60;2.30;;;12.00;99.90;;;;;;6091730;23;20067;-67
2023/09/15 00:22:55;;;;;;;5.22;1.80;;;12.00;99.90;;;;;;6093463;23;20018;-67
2023/09/15 00:25:29;;;;;;;6.65;2.10;;;12.00;99.90;;;;;;6092842;23;20083;-67
2023/09/15 00:27:57;;;;;;;4.32;1.95;;;12.00;99.90;;;;;;6093062;23;20072;-67
2023/09/15 00:30:24;;;;;;;6.95;2.20;;;12.00;99.90;;;;;;6091849;23;20079;-67
2023/09/15 00:32:50;;;;;;;4.15;1.98;;;12.00;99.90;;;;;;6116505;23;20020;-67
2023/09/15 00:35:21;;;;;;;8.63;2.10;;;11.90;99.90;;;;;;6092278;23;20056;-67
2023/09/15 00:37:49;;;;;;;5.63;2.03;;;12.00;99.90;;;;;;6118040;23;20013;-67
2023/09/15 00:40:15;;;;;;;5.95;2.20;;;11.90;99.90;;;;;;6118200;23;20443;-67
2023/09/15 00:42:45;;;;;;;7.95;1.98;;;11.90;99.90;;;;;;6091745;23;20064;-67
2023/09/15 00:45:14;;;;;;;4.40;2.10;;;11.90;99.90;;;;;;6093306;23;20323;-67
2023/09/15 00:47:46;;;;;;;6.70;1.95;;;11.90;99.90;;;;;;6092729;23;20017;-67
2023/09/15 00:50:17;;;;;;;4.00;1.77;;;11.80;99.90;;;;;;6092293;23;20014;-67
2023/09/15 00:52:48;;;;;;;9.75;2.38;;;11.90;99.90;;;;;;6118927;23;20017;-67
2023/09/15 00:55:14;;;;;;;6.32;2.53;;;11.80;99.90;;;;;;6092325;23;20018;-67
2023/09/15 00:57:40;;;;;;;6.75;3.08;;;11.80;99.90;;;;;;6092811;23;20021;-67
2023/09/15 01:00:14;;;;;;;6.00;1.98;;;11.90;99.90;;;;;;6092335;23;20060;-67
2023/09/15 01:02:42;;;;;;;6.35;2.58;;;11.80;99.90;;;;;;6092273;23;20341;-67
2023/09/15 01:05:10;;;;;;;2.85;1.70;;;11.80;99.90;;;;;;6091196;23;20018;-67
2023/09/15 01:07:36;;;;;;;6.30;1.95;;;11.70;99.90;;;;;;6092601;23;20018;-67
2023/09/15 01:10:04;;;;;;;7.82;2.22;;;11.80;99.90;;;;;;6090922;23;20029;-67
2023/09/15 01:12:31;;;;;;;4.65;2.08;;;11.70;99.90;;;;;;6092050;23;20050;-67
2023/09/15 01:14:56;;;;;;;4.70;1.30;;;11.70;99.90;;;;;;6093060;23;20465;-67
2023/09/15 01:17:29;;;;;;;6.72;2.17;;;11.70;99.90;;;;;;6118685;23;20022;-67
2023/09/15 01:20:06;;;;;;;3.53;1.83;;;11.60;99.90;;;;;;6090405;23;20079;-67
2023/09/15 01:23:05;;;;;;;4.40;1.98;;;11.70;99.90;;;;;;6118391;23;20017;-67
2023/09/15 01:25:38;;;;;;;8.20;2.33;;;11.60;99.90;;;;;;6092455;23;20018;-67
2023/09/15 01:28:24;;;;;;;6.25;2.00;;;11.60;99.90;;;;;;6092630;23;20057;-67
2023/09/15 01:30:51;;;;;;;5.65;1.60;;;11.50;99.90;;;;;;6118541;23;20041;-67
2023/09/15 01:33:18;;;;;;;3.22;1.55;;;11.50;99.90;;;;;;6092315;23;20022;-67
2023/09/15 01:35:44;;;;;;;5.32;2.47;;;11.50;99.90;;;;;;6093540;23;20085;-67
2023/09/15 01:38:09;;;;;;;7.57;2.42;;;11.50;99.90;;;;;;6119960;23;20049;-67
2023/09/15 01:40:37;;;;;;;5.45;2.00;;;11.50;99.90;;;;;;6092790;23;20672;-67
2023/09/15 01:43:03;;;;;;;5.50;1.83;;;11.40;99.90;;;;;;6093769;23;20014;-67
2023/09/15 01:45:30;;;;;;;6.25;1.75;;;11.50;99.90;;;;;;6093674;23;20022;-67
2023/09/15 01:47:56;;;;;;;5.70;2.05;;;11.40;99.90;;;;;;6093947;23;20013;-67
2023/09/15 01:50:23;;;;;;;5.13;1.95;;;11.40;99.90;;;;;;6117731;23;20021;-67
2023/09/15 01:52:49;;;;;;;10.38;1.77;;;11.40;99.90;;;;;;6119383;23;20121;-67
2023/09/15 01:55:16;;;;;;;2.53;1.60;;;11.40;99.90;;;;;;6094128;23;20018;-67
2023/09/15 01:57:41;;;;;;;3.80;2.45;;;11.30;99.90;;;;;;6093546;23;20018;-67
2023/09/15 02:00:09;;;;;;;7.65;1.98;;;11.40;99.90;;;;;;6119209;23;20406;-67
2023/09/15 02:02:34;;;;;;;4.10;2.03;;;11.30;99.90;;;;;;6092766;23;20013;-67
2023/09/15 02:05:00;;;;;;;5.00;1.88;;;11.30;99.90;;;;;;6119899;23;20054;-67
2023/09/15 02:07:26;;;;;;;4.82;1.90;;;11.30;99.90;;;;;;6092443;23;20070;-67
2023/09/15 02:09:51;;;;;;;3.22;1.45;;;11.20;99.90;;;;;;6093222;23;20036;-67
2023/09/15 02:12:17;;;;;;;5.18;1.98;;;11.10;99.90;;;;;;6093467;23;20022;-67
2023/09/15 02:14:44;;;;;;;7.57;2.70;;;11.20;99.90;;;;;;6094639;23;20018;-67
2023/09/15 02:17:13;;;;;;;2.72;1.95;;;11.10;99.90;;;;;;6094304;23;20044;-67
2023/09/15 02:19:39;;;;;;;4.20;1.70;;;11.10;99.90;;;;;;6119217;23;20775;-66
2023/09/15 02:22:05;;;;;;;3.83;1.95;;;11.10;99.90;;;;;;6092389;23;20010;-66
2023/09/15 02:24:31;;;;;;;3.60;1.50;;;11.10;99.90;;;;;;6093999;23;20026;-66
2023/09/15 02:26:57;;;;;;;3.50;2.00;;;11.10;99.90;;;;;;6093511;23;20085;-66
2023/09/15 02:29:23;;;;;;;6.20;2.05;;;11.00;99.90;;;;;;6092755;23;20492;-67
2023/09/15 02:31:49;;;;;;;5.00;1.83;;;11.10;99.90;;;;;;6093701;23;20072;-67
2023/09/15 02:34:14;;;;;;;3.30;2.13;;;11.00;99.90;;;;;;6093319;23;20018;-67
2023/09/15 02:36:40;;;;;;;3.13;1.80;;;11.00;99.90;;;;;;6093268;23;20021;-67
2023/09/15 02:39:06;;;;;;;4.55;1.88;;;11.00;99.90;;;;;;6092452;23;20021;-67
2023/09/15 02:41:31;;;;;;;3.95;2.03;;;11.00;99.90;;;;;;6118216;23;20341;-67
2023/09/15 02:43:57;;;;;;;3.15;2.03;;;11.00;99.90;;;;;;6094021;23;20079;-67
2023/09/15 02:46:23;;;;;;;6.70;1.90;;;11.00;99.90;;;;;;6093758;23;20013;-67
2023/09/15 02:48:49;;;;;;;2.78;1.75;;;11.00;99.90;;;;;;6118823;23;20375;-67
2023/09/15 02:51:15;;;;;;;7.88;2.28;;;11.00;99.90;;;;;;6093380;23;20010;-67
2023/09/15 02:53:40;;;;;;;5.20;2.17;;;11.00;99.90;;;;;;6119732;23;20014;-67
2023/09/15 02:56:07;;;;;;;3.58;1.77;;;11.00;99.90;;;;;;6093135;23;20025;-67
2023/09/15 02:58:33;;;;;;;5.00;1.77;;;11.00;99.90;;;;;;6093251;23;20025;-67
2023/09/15 03:00:58;;;;;;;5.43;2.03;;;11.00;99.90;;;;;;6093328;23;20018;-67
2023/09/15 03:03:24;;;;;;;3.45;1.90;;;11.00;99.90;;;;;;6119213;23;20100;-67
2023/09/15 03:06:01;;;;;;;8.82;1.75;;;11.00;99.90;;;;;;6092822;23;20022;-67
2023/09/15 03:08:28;;;;;;;9.23;2.55;;;11.00;99.90;;;;;;6093633;23;20349;-67
2023/09/15 03:10:54;;;;;;;4.28;1.83;;;11.00;99.90;;;;;;6118041;23;20045;-67
2023/09/15 03:13:20;;;;;;;4.07;1.90;;;10.90;99.90;;;;;;6093472;23;20017;-67
2023/09/15 03:15:45;;;;;;;5.50;2.30;;;10.90;99.90;;;;;;6119082;23;20025;-67
2023/09/15 03:18:11;;;;;;;4.28;1.70;;;11.00;99.90;;;;;;6093415;23;20092;-67
2023/09/15 03:20:37;;;;;;;7.30;2.40;;;10.90;99.90;;;;;;6092457;23;20025;-67
2023/09/15 03:23:03;;;;;;;4.50;1.85;;;11.00;99.90;;;;;;6119418;23;20087;-67
2023/09/15 03:25:29;;;;;;;5.65;2.13;;;10.90;99.90;;;;;;6092821;23;20026;-67
2023/09/15 03:27:55;;;;;;;5.85;2.58;;;10.90;99.90;;;;;;6093152;23;20026;-67
2023/09/15 03:30:21;;;;;;;8.43;2.72;;;10.90;99.90;;;;;;6116450;23;20338;-67
2023/09/15 03:32:47;;;;;;;6.57;2.00;;;10.90;99.90;;;;;;6119913;23;20018;-67
2023/09/15 03:35:13;;;;;;;3.85;2.40;;;10.90;99.90;;;;;;6094244;23;20022;-67
2023/09/15 03:37:39;;;;;;;4.97;2.15;;;10.80;99.90;;;;;;6092886;23;20029;-67
2023/09/15 03:40:08;;;;;;;4.47;2.20;;;10.80;99.90;;;;;;6118031;23;20337;-67
2023/09/15 03:42:34;;;;;;;5.88;2.45;;;10.80;99.90;;;;;;6093141;23;20135;-67
2023/09/15 03:45:00;;;;;;;6.80;2.60;;;10.80;99.90;;;;;;6092241;23;20046;-67
2023/09/15 03:47:26;;;;;;;5.60;3.05;;;10.80;99.90;;;;;;6093115;23;20021;-66
2023/09/15 03:49:51;;;;;;;7.63;2.60;;;10.80;99.90;;;;;;6093388;23;20025;-67
2023/09/15 03:52:17;;;;;;;4.88;2.25;;;10.70;99.90;;;;;;6119395;23;20010;-67
2023/09/15 03:54:43;;;;;;;4.88;1.92;;;10.70;99.90;;;;;;6093274;23;20466;-67
2023/09/15 03:57:08;;;;;;;4.38;2.00;;;10.70;99.90;;;;;;6118319;23;20029;-68
2023/09/15 03:59:34;;;;;;;6.35;2.38;;;10.70;99.90;;;;;;6092781;23;20018;-67
2023/09/15 04:02:01;;;;;;;4.20;2.05;;;10.70;99.90;;;;;;6067712;23;20021;-67
2023/09/15 04:04:26;;;;;;;4.38;1.77;;;10.60;99.90;;;;;;6119033;23;20021;-67
2023/09/15 04:06:53;;;;;;;6.00;2.10;;;10.70;99.90;;;;;;6092390;23;20480;-67
2023/09/15 04:09:19;;;;;;;11.25;3.17;;;10.60;99.90;;;;;;6092324;23;20014;-67
2023/09/15 04:11:44;;;;;;;4.90;2.15;;;10.60;99.90;;;;;;6092922;23;20037;-67
2023/09/15 04:14:10;;;;;;;5.72;2.30;;;10.60;99.90;;;;;;6092695;23;20322;-67
2023/09/15 04:16:37;;;;;;;5.57;2.67;;;10.60;99.90;;;;;;6119415;23;20050;-67
2023/09/15 04:19:03;;;;;;;3.88;2.65;;;10.60;99.90;;;;;;6093062;23;20032;-67
2023/09/15 04:21:29;;;;;;;5.65;2.45;;;10.60;99.90;;;;;;6117611;23;20089;-67
2023/09/15 04:23:55;;;;;;;7.38;2.33;;;10.60;99.90;;;;;;6093739;23;20385;-67
2023/09/15 04:26:20;;;;;;;4.03;2.45;;;10.50;99.90;;;;;;6093152;23;20018;-67
2023/09/15 04:28:46;;;;;;;8.18;2.53;;;10.50;99.90;;;;;;6091884;23;20018;-67
2023/09/15 04:31:12;;;;;;;3.05;2.13;;;10.50;99.90;;;;;;6118606;23;20018;-67
2023/09/15 04:33:38;;;;;;;4.13;2.30;;;10.50;99.90;;;;;;6118215;23;20021;-67
2023/09/15 04:36:04;;;;;;;5.95;2.58;;;10.50;99.90;;;;;;6093309;23;20018;-67
2023/09/15 04:38:32;;;;;;;3.88;2.88;;;10.50;99.90;;;;;;6119045;23;20076;-66
2023/09/15 04:40:58;;;;;;;4.53;2.42;;;10.40;99.90;;;;;;6091832;23;20093;-67
2023/09/15 04:43:24;;;;;;;8.05;3.13;;;10.40;99.90;;;;;;6118466;23;20014;-66
2023/09/15 04:45:50;;;;;;;6.93;3.10;;;10.40;99.90;;;;;;6092500;23;20020;-67
2023/09/15 04:59:30;;;;;;;4.28;2.40;;;10.40;99.90;;;;;;6120707;23;20006;-67
2023/09/15 05:01:55;;;;;;;7.82;3.30;;;10.40;99.90;;;;;;6092325;23;20018;-67
2023/09/15 05:04:21;;;;;;;9.50;2.90;;;10.40;99.90;;;;;;6069588;23;20063;-67
2023/09/15 05:06:46;;;;;;;12.40;3.60;;;10.40;99.90;;;;;;6093200;23;20018;-66
2023/09/15 05:09:14;;;;;;;6.82;2.60;;;10.40;99.90;;;;;;6092011;23;20024;-67
2023/09/15 05:11:40;;;;;;;3.53;2.05;;;10.40;99.90;;;;;;6115695;23;20018;-67
2023/09/15 05:44:43;;;;;;;8.82;2.42;;;10.80;99.90;;;;;;6120372;23;20022;-67
2023/09/15 05:47:09;;;;;;;4.15;2.22;;;10.80;99.90;;;;;;6116534;23;20025;-67
2023/09/15 05:49:34;;;;;;;3.50;2.13;;;10.90;99.90;;;;;;6089282;23;20071;-67
2023/09/15 05:52:01;;;;;;;3.30;1.88;;;11.00;99.90;;;;;;6115947;23;20712;-67
2023/09/15 05:54:26;;;;;;;5.57;1.98;;;11.30;99.90;;;;;;6090540;23;20017;-67
2023/09/15 05:56:52;;;;;;;3.20;2.25;;;11.70;99.90;;;;;;6116265;23;20087;-67
2023/09/15 05:59:18;;;;;;;5.53;2.08;;;12.10;99.90;;;;;;6089261;23;20045;-68
2023/09/15 06:01:46;;;;;;;4.25;1.50;;;12.60;99.90;;;;;;6089861;23;20025;-67
2023/09/15 06:04:14;;;;;;;4.97;2.33;;;13.80;99.90;;;;;;6116732;23;20386;-69
2023/09/15 06:06:39;;;;;;;3.78;1.70;;;14.90;99.90;;;;;;6092911;23;20018;-69
2023/09/15 06:09:05;;;;;;;3.00;1.40;;;16.10;99.90;;;;;;6091638;23;20053;-68
2023/09/15 06:11:31;;;;;;;4.07;1.70;;;17.00;99.90;;;;;;6069271;23;20024;-68
2023/09/15 06:13:56;;;;;;;4.45;1.75;;;17.70;99.90;;;;;;6118524;23;20388;-68
2023/09/15 06:16:22;;;;;;;6.65;2.03;;;17.70;99.90;;;;;;6117817;23;20093;-68
2023/09/15 06:18:47;;;;;;;3.50;1.80;;;17.40;99.90;;;;;;6092589;23;20018;-69
2023/09/15 06:21:14;;;;;;;3.00;1.35;;;17.70;99.90;;;;;;6093089;23;20022;-69
2023/09/15 06:23:39;;;;;;;10.95;1.75;;;18.50;99.90;;;;;;6119174;23;20028;-69
2023/09/15 06:26:06;;;;;;;4.57;1.42;;;19.50;99.90;;;;;;6092448;23;20077;-69
2023/09/15 06:28:32;;;;;;;6.30;1.88;;;20.60;99.90;;;;;;6092894;23;20029;-69
2023/09/15 06:30:57;;;;;;;4.68;1.85;;;21.20;99.90;;;;;;6093998;23;20013;-69
2023/09/15 06:33:23;;;;;;;4.28;1.80;;;21.10;99.90;;;;;;6119668;23;20449;-69
2023/09/15 06:35:48;;;;;;;4.82;1.77;;;21.00;99.90;;;;;;6120525;23;20378;-69
2023/09/15 06:38:14;;;;;;;5.78;1.50;;;20.90;99.90;;;;;;6119886;23;20369;-69
2023/09/15 06:40:40;;;;;;;5.93;1.50;;;21.20;99.90;;;;;;6118345;23;20117;-69
2023/09/15 06:43:07;;;;;;;4.28;1.98;;;21.00;99.90;;;;;;6092187;23;20046;-69
2023/09/15 06:45:33;;;;;;;2.63;1.13;;;20.70;99.90;;;;;;6118659;23;20344;-68
2023/09/15 06:47:59;;;;;;;4.78;1.85;;;20.50;99.90;;;;;;6092380;23;20014;-69
2023/09/15 06:50:25;;;;;;;4.35;1.70;;;20.10;99.90;;;;;;6091804;23;20015;-69
2023/09/15 06:52:50;;;;;;;4.50;1.60;;;19.80;99.90;;;;;;6119997;23;20014;-68
2023/09/15 06:55:16;;;;;;;5.68;2.10;;;19.60;99.90;;;;;;6119732;23;20097;-68
2023/09/15 06:57:41;;;;;;;7.15;2.33;;;19.00;99.90;;;;;;6092891;23;20029;-69
2023/09/15 07:00:09;;;;;;;6.90;2.20;;;18.50;99.90;;;;;;6091932;23;20022;-68
2023/09/15 07:02:34;;;;;;;4.47;2.17;;;17.80;99.90;;;;;;6117842;23;20452;-68
2023/09/15 07:05:00;;;;;;;6.82;2.63;;;17.10;99.90;;;;;;6092698;23;20010;-69
2023/09/15 07:07:26;;;;;;;4.50;1.77;;;16.80;99.90;;;;;;6092184;23;20025;-69
2023/09/15 07:09:51;;;;;;;4.57;2.28;;;16.50;99.90;;;;;;6091968;23;20080;-69
2023/09/15 07:12:17;;;;;;;8.45;2.33;;;16.20;99.90;;;;;;6116796;23;20113;-69
2023/09/15 07:14:43;;;;;;;7.18;1.98;;;15.90;99.90;;;;;;6089792;23;20097;-69
2023/09/15 07:17:08;;;;;;;4.70;2.00;;;15.80;99.90;;;;;;6090826;23;20026;-69
2023/09/15 07:19:34;;;;;;;4.75;2.08;;;15.60;99.90;;;;;;6090931;23;20147;-69
2023/09/15 07:22:00;;;;;;;6.57;2.63;;;15.80;99.90;;;;;;6093968;23;20029;-68
2023/09/15 07:24:25;;;;;;;4.45;2.10;;;15.50;99.90;;;;;;6093318;23;20020;-69
2023/09/15 07:26:51;;;;;;;11.25;2.65;;;15.40;99.90;;;;;;6092021;23;20050;-69
2023/09/15 07:29:16;;;;;;;6.78;2.03;;;15.40;99.90;;;;;;6108837;23;20105;-69
2023/09/15 07:31:42;;;;;;;5.90;2.83;;;15.40;99.90;;;;;;6089058;23;20053;-68
2023/09/15 07:34:09;;;;;;;7.38;2.38;;;15.40;99.90;;;;;;6090188;23;20018;-68
2023/09/15 07:36:35;;;;;;;2.67;1.65;;;15.30;99.90;;;;;;6115986;23;20224;-68
2023/09/15 07:39:01;;;;;;;7.60;3.05;;;15.40;99.90;;;;;;6089858;23;20018;-68
2023/09/15 07:41:27;;;;;;;3.78;2.00;;;15.40;99.90;;;;;;6090289;23;20014;-69
2023/09/15 07:43:56;;;;;;;6.80;2.10;;;15.40;99.90;;;;;;6115253;23;20368;-69
2023/09/15 07:46:22;;;;;;;7.13;2.03;;;15.50;99.90;;;;;;6089729;23;20018;-69
2023/09/15 07:48:47;;;;;;;5.88;1.85;;;15.50;99.90;;;;;;6089229;23;20020;-69
2023/09/15 07:51:13;;;;;;;5.05;2.00;;;15.50;99.90;;;;;;6086872;23;20029;-68
2023/09/15 07:53:39;;;;;;;7.95;2.50;;;15.60;99.90;;;;;;6090480;23;20096;-69
2023/09/15 07:56:05;;;;;;;6.07;2.38;;;15.70;99.90;;;;;;6089644;23;20045;-69
2023/09/15 07:58:31;;;;;;;4.88;2.15;;;15.70;99.90;;;;;;6114212;23;20079;-69
2023/09/15 08:00:57;;;;;;;5.20;2.00;;;15.70;99.90;;;;;;6088947;23;20093;-68
2023/09/15 08:03:23;;;;;;;3.92;1.60;;;16.20;99.90;;;;;;6089106;23;20026;-68
2023/09/15 08:05:49;;;;;;;4.82;1.90;;;15.80;99.90;;;;;;6088664;23;20321;-68
2023/09/15 08:08:14;;;;;;;3.20;1.90;;;15.90;99.90;;;;;;6113665;23;20018;-69
2023/09/15 08:10:40;;;;;;;4.97;2.25;;;15.90;99.90;;;;;;6091031;23;20025;-69
2023/09/15 08:13:06;;;;;;;4.03;2.22;;;16.00;99.90;;;;;;6091900;23;20022;-69
2023/09/15 08:15:31;;;;;;;4.15;2.13;;;16.00;99.90;;;;;;6089561;23;20018;-68
2023/09/15 08:17:58;;;;;;;4.85;1.55;;;16.20;99.90;;;;;;6116278;23;20452;-69
2023/09/15 08:20:24;;;;;;;8.00;3.03;;;16.30;99.90;;;;;;6116214;23;20078;-69
2023/09/15 08:22:50;;;;;;;2.85;1.90;;;16.40;99.90;;;;;;6089432;23;20052;-69
2023/09/15 08:25:16;;;;;;;9.70;2.78;;;16.70;99.90;;;;;;6114832;23;20303;-69
2023/09/15 08:27:44;;;;;;;4.53;2.15;;;16.90;99.90;;;;;;6114537;23;20160;-69
2023/09/15 08:30:10;;;;;;;5.82;2.45;;;17.20;99.90;;;;;;6115059;23;20325;-69
2023/09/15 08:32:35;;;;;;;5.60;2.03;;;17.50;99.90;;;;;;6088079;23;20018;-69
2023/09/15 08:35:01;;;;;;;3.97;1.70;;;17.90;99.90;;;;;;6090108;23;20103;-69
2023/09/15 08:37:27;;;;;;;6.45;2.40;;;18.10;99.90;;;;;;6115662;23;20081;-69
2023/09/15 08:39:53;;;;;;;6.90;2.15;;;18.40;99.90;;;;;;6088358;23;20310;-69
2023/09/15 08:42:36;;;;;;;5.35;2.47;;;18.60;99.90;;;;;;6088363;23;20056;-69
2023/09/15 08:45:05;;;;;;;4.10;1.65;;;18.80;99.90;;;;;;6116072;23;20753;-69
2023/09/15 08:47:39;;;;;;;4.95;2.28;;;18.90;99.90;;;;;;6088672;23;20014;-69
2023/09/15 08:50:06;;;;;;;4.75;2.05;;;19.10;99.90;;;;;;6085898;23;20021;-69
2023/09/15 08:52:33;;;;;;;8.27;1.77;;;19.20;99.90;;;;;;6114287;23;20325;-69
2023/09/15 08:55:01;;;;;;;2.38;1.38;;;19.30;99.90;;;;;;6089385;23;20093;-69
2023/09/15 08:57:29;;;;;;;8.45;2.42;;;19.40;99.90;;;;;;6089176;23;20018;-69
2023/09/15 08:59:55;;;;;;;3.00;1.40;;;19.60;99.90;;;;;;6089244;23;20046;-69
2023/09/15 09:02:23;;;;;;;7.30;1.67;;;19.60;99.90;;;;;;6087060;23;20022;-69
2023/09/15 09:04:49;;;;;;;3.83;1.52;;;19.90;99.90;;;;;;6090265;23;20019;-69
2023/09/15 09:07:16;;;;;;;4.68;1.80;;;20.20;99.90;;;;;;6087717;23;20067;-69
2023/09/15 09:09:44;;;;;;;6.15;1.67;;;20.20;99.90;;;;;;6088996;23;20040;-69
2023/09/15 09:12:09;;;;;;;8.23;1.88;;;20.40;99.90;;;;;;6114653;23;20780;-69
2023/09/15 09:14:35;;;;;;;2.83;1.58;;;20.40;99.90;;;;;;6089242;23;20022;-69
2023/09/15 09:17:02;;;;;;;7.43;1.65;;;20.30;99.90;;;;;;6085048;23;20018;-69
2023/09/15 09:19:42;;;;;;;5.38;2.80;;;20.50;99.90;;;;;;6111350;23;20060;-69
2023/09/15 09:22:09;;;;;;;4.80;1.50;;;20.60;99.90;;;;;;6115772;23;20396;-69
2023/09/15 09:24:36;;;;;;;6.63;2.25;;;20.80;99.90;;;;;;6089686;23;20113;-70
2023/09/15 09:27:10;;;;;;;5.18;1.17;;;20.80;99.90;;;;;;6089078;23;20014;-69
2023/09/15 09:29:37;;;;;;;7.38;1.20;;;20.80;99.90;;;;;;6087472;23;20118;-69
2023/09/15 09:32:04;;;;;;;4.90;1.63;;;20.90;99.90;;;;;;6088911;23;20032;-69
2023/09/15 09:34:30;;;;;;;3.60;1.50;;;21.00;99.90;;;;;;6089931;23;20045;-69
2023/09/15 09:36:55;;;;;;;5.15;1.25;;;21.30;99.90;;;;;;6089352;23;20045;-69
2023/09/15 09:39:21;;;;;;;2.08;1.05;;;21.20;99.90;;;;;;6088121;23;20116;-69
2023/09/15 09:41:47;;;;;;;4.32;1.52;;;21.40;99.90;;;;;;6111719;23;20022;-70
2023/09/15 09:44:13;;;;;;;5.43;1.83;;;21.40;99.90;;;;;;6088726;23;20018;-69
2023/09/15 09:46:42;;;;;;;5.80;1.65;;;21.40;99.90;;;;;;6114560;23;20018;-70
2023/09/15 09:49:09;;;;;;;4.00;1.40;;;21.20;99.90;;;;;;6114213;23;20539;-70
2023/09/15 09:51:35;;;;;;;3.90;1.45;;;21.20;99.90;;;;;;6086039;23;20045;-70
2023/09/15 09:54:02;;;;;;;5.68;1.58;;;21.20;99.90;;;;;;6114464;23;20022;-70
2023/09/15 09:56:31;;;;;;;5.28;1.50;;;21.20;99.90;;;;;;6115369;23;20010;-70
2023/09/15 09:59:08;;;;;;;5.05;1.70;;;21.20;99.90;;;;;;6115507;23;20449;-70
2023/09/15 10:01:34;;;;;;;4.57;1.50;;;21.50;99.90;;;;;;6089522;23;20018;-70
2023/09/15 10:04:00;;;;;;;3.38;1.38;;;21.80;99.90;;;;;;6091288;23;20025;-70
2023/09/15 10:06:26;;;;;;;4.45;1.63;;;21.80;99.90;;;;;;6115601;23;20014;-70
2023/09/15 10:08:57;;;;;;;4.47;1.38;;;22.00;99.90;;;;;;6089475;23;20018;-70
2023/09/15 10:11:23;;;;;;;12.18;5.55;;;22.10;99.90;;;;;;6088920;23;20021;-71
2023/09/15 10:13:50;;;;;;;3.15;1.60;;;22.30;99.80;;;;;;6090335;23;20314;-70
2023/09/15 10:16:16;;;;;;;4.43;1.48;;;22.30;99.90;;;;;;6090157;23;20049;-70
2023/09/15 10:18:44;;;;;;;3.88;1.38;;;22.40;99.20;;;;;;6089735;23;20050;-69
2023/09/15 10:21:10;;;;;;;6.70;1.55;;;22.40;99.10;;;;;;6090441;23;20021;-69
2023/09/15 10:23:36;;;;;;;4.30;1.65;;;22.40;98.80;;;;;;6089429;23;20128;-70
2023/09/15 10:26:02;;;;;;;5.25;1.30;;;22.60;99.50;;;;;;6090075;23;20436;-70
2023/09/15 10:28:29;;;;;;;5.38;1.50;;;22.80;99.50;;;;;;6115917;23;20014;-70
2023/09/15 10:30:55;;;;;;;5.40;1.50;;;22.80;99.20;;;;;;6090076;23;20021;-70
2023/09/15 10:33:23;;;;;;;3.95;1.83;;;22.70;98.40;;;;;;6090181;23;20383;-70
2023/09/15 10:35:49;;;;;;;4.72;1.30;;;22.70;99.00;;;;;;6090029;23;20014;-70
2023/09/15 10:38:27;;;;;;;3.15;1.02;;;22.50;98.40;;;;;;6088817;23;20022;-70
2023/09/15 10:40:54;;;;;;;3.50;1.50;;;22.40;98.40;;;;;;6115636;23;20042;-70
2023/09/15 10:43:20;;;;;;;3.30;1.55;;;22.00;97.60;;;;;;6088908;23;20020;-70
2023/09/15 10:46:04;;;;;;;2.20;1.00;;;22.10;98.30;;;;;;6089416;23;20022;-70
2023/09/15 10:48:47;;;;;;;5.43;1.35;;;22.30;98.50;;;;;;6089093;23;20010;-70
2023/09/15 10:51:18;;;;;;;5.57;1.73;;;22.30;97.70;;;;;;6088254;23;20017;-70
2023/09/15 10:53:56;;;;;;;4.45;1.38;;;21.90;97.50;;;;;;6115760;23;20010;-70
2023/09/15 10:56:21;;;;;;;3.97;1.60;;;22.10;98.00;;;;;;6114797;23;20079;-70
2023/09/15 10:58:47;;;;;;;3.35;1.30;;;22.20;98.40;;;;;;6085340;23;20165;-70
2023/09/15 11:01:14;;;;;;;4.18;1.73;;;22.40;98.70;;;;;;6086111;23;20037;-70
2023/09/15 11:03:41;;;;;;;3.35;1.40;;;22.30;98.20;;;;;;6087475;23;20049;-70
2023/09/15 11:06:15;;;;;;;4.15;1.92;;;22.40;98.60;;;;;;6087632;23;20022;-70
2023/09/15 11:08:41;;;;;;;2.88;1.30;;;22.70;98.50;;;;;;6087113;23;20323;-70
2023/09/15 11:11:10;;;;;;;5.57;1.40;;;22.50;96.70;;;;;;6113562;23;20006;-70
2023/09/15 11:13:41;;;;;;;1.88;1.40;;;22.20;96.60;;;;;;6112689;23;20452;-70
2023/09/15 11:16:09;;;;;;;2.65;1.17;;;22.10;97.30;;;;;;6112350;23;20018;-70
2023/09/15 11:18:36;;;;;;;5.22;1.70;;;22.00;97.80;;;;;;6085508;23;20044;-70
2023/09/15 11:21:02;;;;;;;2.35;1.23;;;22.20;97.90;;;;;;6086205;23;20797;-70
2023/09/15 11:23:29;;;;;;;6.30;1.48;;;22.20;97.90;;;;;;6113563;23;20014;-75
2023/09/15 11:26:03;;;;;;;4.22;1.60;;;22.30;97.50;;;;;;6112574;23;20137;-69
2023/09/15 11:28:33;;;;;;;5.47;1.77;;;22.30;97.30;;;;;;6086440;23;20439;-69
2023/09/15 11:31:02;;;;;;;1.85;1.00;;;22.40;98.10;;;;;;6086489;23;20025;-69
2023/09/15 11:33:29;;;;;;;3.50;1.15;;;22.50;97.80;;;;;;6087326;23;20028;-69
2023/09/15 11:35:56;;;;;;;5.90;1.20;;;22.60;97.40;;;;;;6087447;23;20072;-75
2023/09/15 11:38:23;;;;;;;4.97;1.85;;;22.60;97.40;;;;;;6089180;23;20022;-69
2023/09/15 11:40:50;;;;;;;2.50;1.05;;;22.30;96.40;;;;;;6088594;23;20026;-69
2023/09/15 11:43:15;;;;;;;4.47;1.30;;;22.10;96.80;;;;;;6089137;23;20026;-69
2023/09/15 11:45:42;;;;;;;3.67;1.40;;;22.30;97.60;;;;;;6113096;23;20329;-69
2023/09/15 11:48:10;;;;;;;5.03;1.40;;;22.30;97.40;;;;;;6086711;23;20018;-69
2023/09/15 11:50:36;;;;;;;8.13;1.45;;;22.20;97.40;;;;;;6108408;23;20043;-69
2023/09/15 11:53:02;;;;;;;4.50;1.60;;;22.40;98.20;;;;;;6114029;23;20349;-68
2023/09/15 11:55:28;;;;;;;3.88;1.23;;;22.50;98.30;;;;;;6087700;23;20029;-68
2023/09/15 11:57:56;;;;;;;4.57;1.67;;;22.60;98.30;;;;;;6061478;23;20022;-68
2023/09/15 12:00:23;;;;;;;3.22;1.08;;;22.70;97.80;;;;;;6087326;23;20323;-68
2023/09/15 12:02:53;;;;;;;3.65;1.45;;;22.90;97.50;;;;;;6088305;23;20393;-68
2023/09/15 12:05:20;;;;;;;2.88;1.33;;;23.10;97.30;;;;;;6089333;23;20437;-68
2023/09/15 12:07:47;;;;;;;3.72;1.63;;;23.10;97.10;;;;;;6114572;23;20067;-68
2023/09/15 12:10:15;;;;;;;3.60;1.23;;;23.00;97.00;;;;;;6088193;23;20255;-68
2023/09/15 12:12:41;;;;;;;3.33;1.45;;;22.90;97.30;;;;;;6111206;23;20017;-68
2023/09/15 12:15:08;;;;;;;4.53;2.03;;;22.90;97.30;;;;;;6087834;23;20018;-69
2023/09/15 12:17:34;;;;;;;4.72;1.70;;;22.90;97.20;;;;;;6113735;23;20024;-69
2023/09/15 12:20:02;;;;;;;3.05;1.33;;;22.80;97.10;;;;;;6088799;23;20061;-69
2023/09/15 12:22:38;;;;;;;3.35;1.15;;;22.60;96.90;;;;;;6088637;23;20022;-69
2023/09/15 12:25:05;;;;;;;5.55;1.70;;;22.50;97.70;;;;;;6089204;23;20018;-69
2023/09/15 12:27:32;;;;;;;4.03;1.75;;;22.20;97.50;;;;;;6112503;23;20014;-69
2023/09/15 12:30:01;;;;;;;3.20;1.25;;;22.00;97.70;;;;;;6113617;23;20014;-69
2023/09/15 12:32:27;;;;;;;5.32;1.60;;;21.80;97.70;;;;;;6111446;23;20043;-69
2023/09/15 12:34:56;;;;;;;4.03;1.80;;;21.70;98.30;;;;;;6085939;23;20089;-69
2023/09/15 12:37:24;;;;;;;3.60;1.48;;;21.80;98.70;;;;;;6109827;23;20018;-69
2023/09/15 12:39:51;;;;;;;3.42;1.40;;;22.10;98.80;;;;;;6078973;23;20022;-70
2023/09/15 12:42:16;;;;;;;4.35;1.40;;;22.20;98.30;;;;;;6108778;23;20282;-69
2023/09/15 12:44:42;;;;;;;4.22;1.83;;;22.30;98.50;;;;;;6084462;23;20014;-69
2023/09/15 12:47:08;;;;;;;5.15;2.13;;;22.10;97.60;;;;;;6108697;23;20009;-69
2023/09/15 12:49:34;;;;;;;3.55;1.38;;;22.10;97.50;;;;;;6082877;23;20777;-69
2023/09/15 12:51:59;;;;;;;3.72;1.77;;;22.30;97.50;;;;;;6080814;23;20071;-69
2023/09/15 12:54:26;;;;;;;5.13;1.70;;;22.40;97.30;;;;;;6109879;23;20504;-69
2023/09/15 12:56:53;;;;;;;4.78;1.50;;;22.60;97.50;;;;;;6110203;23;20021;-69
2023/09/15 12:59:21;;;;;;;6.45;1.95;;;22.80;97.90;;;;;;6109112;23;20316;-69
2023/09/15 13:01:47;;;;;;;4.43;1.55;;;22.80;97.80;;;;;;6084325;23;20517;-69
2023/09/15 13:04:13;;;;;;;3.50;1.30;;;22.90;98.20;;;;;;6061616;23;20022;-69
2023/09/15 13:06:38;;;;;;;4.03;1.65;;;22.90;97.20;;;;;;6084081;23;20022;-69
2023/09/15 13:09:05;;;;;;;6.00;2.13;;;22.90;97.40;;;;;;6109120;23;20010;-69
2023/09/15 13:11:31;;;;;;;8.70;2.00;;;22.60;96.60;;;;;;6084389;23;20024;-69
2023/09/15 13:13:57;;;;;;;3.67;1.75;;;22.30;97.20;;;;;;6110809;23;20514;-69
2023/09/15 13:16:23;;;;;;;8.00;1.58;;;22.20;97.60;;;;;;6112227;23;20053;-69
2023/09/15 13:18:49;;;;;;;4.25;1.35;;;22.10;97.80;;;;;;6112437;23;20307;-69
2023/09/15 13:21:14;;;;;;;4.72;1.60;;;22.10;98.20;;;;;;6086977;23;20025;-69
2023/09/15 13:23:40;;;;;;;4.65;1.63;;;22.10;98.30;;;;;;6112744;23;20033;-69
2023/09/15 13:26:05;;;;;;;8.13;1.70;;;22.10;97.90;;;;;;6086220;23;20044;-69